Time;durP1;ratioP1;P1;durP2;ratioP2;P2;SDS_P1;SDS_P2;PMS_P1;PMS_P2;Temp;Humidity;BMP_temperature;BMP_pressure;BME280_temperature;BME280_humidity;BME280_pressure;Samples;Min_cycle;Max_cycle;Signal;HPM_P1;HPM_P2
2022/11/05 00:10:33;;;;;;;7.80;1.75;;;7.30;99.90;;;;;;6159528;23;20028;-77
2022/11/05 00:18:29;;;;;;;6.68;1.80;;;7.20;99.90;;;;;;6159563;23;20323;-77
2022/11/05 00:20:54;;;;;;;8.50;2.15;;;7.20;99.90;;;;;;6159512;23;20147;-77
2022/11/05 00:26:06;;;;;;;4.25;1.40;;;7.10;99.90;;;;;;6159412;23;20091;-77
2022/11/05 00:28:34;;;;;;;4.70;1.20;;;7.10;99.90;;;;;;6185716;23;20100;-77
2022/11/05 00:31:01;;;;;;;11.38;2.08;;;7.00;99.90;;;;;;6159314;23;20463;-77
2022/11/05 00:33:27;;;;;;;7.57;2.25;;;7.10;99.90;;;;;;6159519;23;20437;-77
2022/11/05 00:35:53;;;;;;;7.43;1.75;;;7.10;99.90;;;;;;6159505;23;20024;-77
2022/11/05 00:38:18;;;;;;;4.30;1.30;;;7.10;99.90;;;;;;6159533;23;20345;-77
2022/11/05 00:40:44;;;;;;;7.30;1.55;;;7.00;99.90;;;;;;6185774;23;20338;-77
2022/11/05 00:45:54;;;;;;;4.88;1.52;;;7.00;99.90;;;;;;6159387;23;20025;-77
2022/11/05 00:51:05;;;;;;;9.45;2.67;;;7.10;99.90;;;;;;6186028;23;20089;-78
2022/11/05 00:53:31;;;;;;;8.32;2.33;;;7.10;99.90;;;;;;6159468;23;20091;-78
2022/11/05 00:55:56;;;;;;;8.07;1.88;;;7.10;99.90;;;;;;6160983;23;20488;-78
2022/11/05 00:58:22;;;;;;;8.75;1.83;;;7.10;99.90;;;;;;6161282;23;20018;-77
2022/11/05 01:00:51;;;;;;;7.90;2.30;;;7.10;99.90;;;;;;6161239;23;20067;-77
2022/11/05 01:03:19;;;;;;;7.68;1.85;;;7.20;99.90;;;;;;6187868;23;20017;-77
2022/11/05 01:05:49;;;;;;;5.75;2.10;;;7.20;99.90;;;;;;6161200;23;20337;-77
2022/11/05 01:08:17;;;;;;;6.72;1.77;;;7.10;99.90;;;;;;6160938;23;20017;-77
2022/11/05 01:10:46;;;;;;;6.55;2.55;;;7.20;99.90;;;;;;6161060;23;20040;-77
2022/11/05 01:13:13;;;;;;;8.25;1.98;;;7.20;99.90;;;;;;6160974;23;20025;-77
2022/11/05 01:15:39;;;;;;;9.57;2.42;;;7.10;99.90;;;;;;6161140;23;20021;-77
2022/11/05 01:18:05;;;;;;;4.75;1.73;;;7.10;99.90;;;;;;6161127;23;20094;-77
2022/11/05 01:20:31;;;;;;;8.77;1.95;;;7.10;99.90;;;;;;6187388;23;20348;-78
2022/11/05 01:22:57;;;;;;;7.00;1.98;;;7.10;99.90;;;;;;6161013;23;20500;-78
2022/11/05 01:25:22;;;;;;;6.65;2.03;;;7.10;99.90;;;;;;6161073;23;20028;-78
2022/11/05 01:27:48;;;;;;;6.15;2.30;;;7.10;99.90;;;;;;6160931;23;20353;-78
2022/11/05 01:30:14;;;;;;;3.95;2.10;;;7.10;99.90;;;;;;6161086;23;20092;-78
2022/11/05 01:32:40;;;;;;;6.05;1.92;;;7.00;99.90;;;;;;6160757;23;20017;-78
2022/11/05 01:35:09;;;;;;;6.15;2.05;;;7.00;99.90;;;;;;6160962;23;20019;-77
2022/11/05 01:37:34;;;;;;;6.47;2.10;;;7.00;99.90;;;;;;6160859;23;20020;-77
2022/11/05 01:40:00;;;;;;;9.07;2.53;;;7.00;99.90;;;;;;6160941;23;20017;-77
2022/11/05 01:42:27;;;;;;;3.45;1.73;;;7.00;99.90;;;;;;6160804;23;20036;-78
2022/11/05 01:44:58;;;;;;;6.75;1.92;;;7.00;99.90;;;;;;6160783;23;20017;-78
2022/11/05 01:47:49;;;;;;;9.00;1.90;;;7.00;99.90;;;;;;6160774;23;20044;-78
2022/11/05 01:50:24;;;;;;;6.45;1.77;;;7.00;99.90;;;;;;6160806;23;20384;-78
2022/11/05 01:52:55;;;;;;;6.32;2.10;;;6.90;99.90;;;;;;6160832;23;20051;-78
2022/11/05 01:55:27;;;;;;;8.23;2.05;;;6.90;99.90;;;;;;6160597;23;20092;-78
2022/11/05 01:57:55;;;;;;;6.15;2.50;;;6.90;99.90;;;;;;6160610;23;20017;-78
2022/11/05 02:00:20;;;;;;;6.85;2.60;;;6.90;99.90;;;;;;6187343;23;20021;-78
2022/11/05 02:02:46;;;;;;;8.20;2.20;;;6.90;99.90;;;;;;6187037;23;20020;-78
2022/11/05 02:05:14;;;;;;;5.13;2.40;;;7.00;99.90;;;;;;6160517;23;20025;-78
2022/11/05 02:07:41;;;;;;;5.55;1.80;;;7.00;99.90;;;;;;6160359;23;20484;-77
2022/11/05 02:10:10;;;;;;;7.40;2.92;;;6.90;99.90;;;;;;6160593;23;20013;-77
2022/11/05 02:12:38;;;;;;;10.13;2.35;;;7.00;99.90;;;;;;6160551;23;20017;-78
2022/11/05 02:15:05;;;;;;;8.18;1.95;;;6.90;99.90;;;;;;6187183;23;20013;-78
2022/11/05 02:17:52;;;;;;;6.13;1.70;;;6.90;99.90;;;;;;6160420;23;20017;-78
2022/11/05 02:20:30;;;;;;;5.68;1.80;;;6.90;99.90;;;;;;6160456;23;20021;-77
2022/11/05 02:23:35;;;;;;;6.05;2.03;;;6.80;99.90;;;;;;6160498;23;20100;-77
2022/11/05 02:26:19;;;;;;;7.43;2.00;;;6.90;99.90;;;;;;6141065;23;20047;-77
2022/11/05 02:29:24;;;;;;;6.10;1.80;;;6.90;99.90;;;;;;6160352;23;20021;-77
2022/11/05 02:31:59;;;;;;;8.65;1.98;;;6.80;99.90;;;;;;6160220;23;20020;-77
2022/11/05 02:34:40;;;;;;;6.57;1.98;;;6.80;99.90;;;;;;6160333;23;20025;-77
2022/11/05 02:37:21;;;;;;;5.72;1.60;;;6.80;99.90;;;;;;6160309;23;20012;-77
2022/11/05 02:40:13;;;;;;;7.45;1.85;;;6.90;99.90;;;;;;6186538;23;20025;-77
2022/11/05 02:43:19;;;;;;;8.27;2.72;;;6.90;99.90;;;;;;6159378;23;20346;-78
2022/11/05 02:45:50;;;;;;;6.85;1.67;;;6.90;99.90;;;;;;6160220;23;20392;-78
2022/11/05 02:48:51;;;;;;;8.27;1.58;;;7.00;99.90;;;;;;6160113;23;20025;-78
2022/11/05 02:51:34;;;;;;;7.60;1.48;;;6.90;99.90;;;;;;6160180;23;20088;-77
2022/11/05 02:54:28;;;;;;;3.88;1.23;;;7.00;99.90;;;;;;6160245;23;20450;-78
2022/11/05 02:56:56;;;;;;;4.72;1.42;;;6.90;99.90;;;;;;6160193;23;20353;-78
2022/11/05 02:59:22;;;;;;;6.35;1.33;;;7.00;99.90;;;;;;6186809;23;20012;-78
2022/11/05 03:01:49;;;;;;;4.13;1.90;;;7.00;99.90;;;;;;6160074;23;20047;-78
2022/11/05 03:04:18;;;;;;;4.72;1.58;;;7.10;99.90;;;;;;6160145;23;20012;-78
2022/11/05 03:06:52;;;;;;;5.47;1.80;;;7.00;99.90;;;;;;6186327;23;20472;-78
2022/11/05 03:09:39;;;;;;;6.03;1.60;;;7.10;99.90;;;;;;6186684;23;20078;-78
2022/11/05 03:12:20;;;;;;;4.93;1.73;;;7.10;99.90;;;;;;6160045;23;20028;-78
2022/11/05 03:14:54;;;;;;;3.80;1.20;;;7.10;99.90;;;;;;6160073;23;20021;-78
2022/11/05 03:17:55;;;;;;;7.45;1.88;;;7.10;99.90;;;;;;6159700;23;20017;-78
2022/11/05 03:20:30;;;;;;;4.90;1.58;;;7.10;99.90;;;;;;6115579;23;20049;-78
2022/11/05 03:23:10;;;;;;;10.63;1.80;;;7.10;99.90;;;;;;6186678;23;20024;-78
2022/11/05 03:25:42;;;;;;;5.50;1.92;;;7.10;99.90;;;;;;6186689;23;20024;-78
2022/11/05 03:28:09;;;;;;;4.13;1.40;;;7.10;99.90;;;;;;6160434;23;20017;-78
2022/11/05 03:30:36;;;;;;;5.55;1.73;;;7.10;99.90;;;;;;6159636;23;20052;-78
2022/11/05 03:33:08;;;;;;;5.05;1.60;;;7.10;99.90;;;;;;6159829;23;20033;-78
2022/11/05 03:35:38;;;;;;;4.70;1.40;;;7.00;99.90;;;;;;6159921;23;20021;-78
2022/11/05 03:38:13;;;;;;;3.67;1.50;;;7.00;99.90;;;;;;6160194;23;20433;-78
2022/11/05 03:40:44;;;;;;;5.53;1.27;;;7.00;99.90;;;;;;6159884;23;20049;-78
2022/11/05 03:43:12;;;;;;;5.90;2.47;;;7.00;99.90;;;;;;6159896;23;20017;-78
2022/11/05 03:45:45;;;;;;;5.72;2.75;;;7.00;99.90;;;;;;6186017;23;20354;-78
2022/11/05 03:48:15;;;;;;;5.10;1.50;;;7.00;99.90;;;;;;6159747;23;20068;-78
2022/11/05 03:51:20;;;;;;;4.47;1.58;;;7.00;99.90;;;;;;6159763;23;20017;-78
2022/11/05 03:53:50;;;;;;;9.10;1.60;;;7.10;99.90;;;;;;6159689;23;20064;-78
2022/11/05 03:56:24;;;;;;;4.32;1.38;;;7.10;99.90;;;;;;6159672;23;20338;-78
2022/11/05 03:58:52;;;;;;;5.30;1.60;;;7.20;99.90;;;;;;6159773;23;20052;-78
2022/11/05 04:01:17;;;;;;;4.38;1.48;;;7.20;99.90;;;;;;6159638;23;20042;-78
2022/11/05 04:03:43;;;;;;;3.70;1.48;;;7.30;99.90;;;;;;6159744;23;20096;-78
2022/11/05 04:14:25;;;;;;;3.95;1.40;;;7.50;99.90;;;;;;6159573;23;20032;-77
2022/11/05 04:17:07;;;;;;;3.97;1.65;;;7.60;99.90;;;;;;6159562;23;20043;-78
2022/11/05 04:25:15;;;;;;;4.45;1.20;;;7.60;99.90;;;;;;6186060;23;20068;-78
2022/11/05 04:27:41;;;;;;;4.05;1.17;;;7.70;99.90;;;;;;6159441;23;20024;-78
2022/11/05 04:30:20;;;;;;;3.00;1.23;;;7.60;99.90;;;;;;6187087;23;20017;-78
2022/11/05 04:32:59;;;;;;;5.57;1.50;;;7.70;99.90;;;;;;6161185;23;20025;-78
2022/11/05 04:35:27;;;;;;;4.28;1.63;;;7.80;99.90;;;;;;6188799;23;20009;-78
2022/11/05 04:37:53;;;;;;;4.90;1.33;;;7.80;99.90;;;;;;6188142;23;20025;-78
2022/11/05 04:40:18;;;;;;;5.72;2.13;;;7.80;99.90;;;;;;6161529;23;20029;-78
2022/11/05 04:42:44;;;;;;;3.28;1.30;;;7.80;99.90;;;;;;6161406;23;20060;-78
2022/11/05 04:45:09;;;;;;;2.13;0.98;;;7.80;99.90;;;;;;6161459;23;20021;-78
2022/11/05 04:47:35;;;;;;;5.78;1.40;;;7.80;99.90;;;;;;6161256;23;20013;-78
2022/11/05 04:50:01;;;;;;;6.80;1.38;;;7.80;99.90;;;;;;6161346;23;20096;-78
2022/11/05 04:52:26;;;;;;;2.45;1.20;;;7.80;99.90;;;;;;6161331;23;20017;-78
2022/11/05 04:54:52;;;;;;;3.80;1.33;;;7.80;99.90;;;;;;6161245;23;20031;-78
2022/11/05 04:57:17;;;;;;;4.22;1.20;;;7.80;99.90;;;;;;6161366;23;20438;-78
2022/11/05 04:59:46;;;;;;;3.20;1.00;;;7.80;99.90;;;;;;6187924;23;20406;-78
2022/11/05 05:02:14;;;;;;;6.20;1.67;;;7.90;99.90;;;;;;6161347;23;20021;-78
2022/11/05 05:04:42;;;;;;;4.60;1.20;;;7.90;99.90;;;;;;6161038;23;20433;-77
2022/11/05 05:07:08;;;;;;;5.22;1.30;;;7.90;99.90;;;;;;6160993;23;20338;-78
2022/11/05 05:09:34;;;;;;;2.40;1.00;;;8.00;99.90;;;;;;6161260;23;20445;-78
2022/11/05 05:12:01;;;;;;;2.75;1.17;;;8.00;99.90;;;;;;6161271;23;20017;-78
2022/11/05 05:14:27;;;;;;;3.30;1.52;;;8.00;99.90;;;;;;6187490;23;20056;-78
2022/11/05 05:16:52;;;;;;;5.05;1.30;;;8.00;99.90;;;;;;6161045;23;20025;-78
2022/11/05 05:19:18;;;;;;;5.13;1.52;;;8.00;99.90;;;;;;6161115;23;20024;-77
2022/11/05 05:21:43;;;;;;;2.17;1.20;;;8.00;99.90;;;;;;6161353;23;20100;-78
2022/11/05 05:24:14;;;;;;;4.60;1.83;;;8.10;99.90;;;;;;6161026;23;20009;-78
2022/11/05 05:26:44;;;;;;;4.82;1.30;;;8.00;99.90;;;;;;6160927;23;20100;-78
2022/11/05 05:29:11;;;;;;;2.03;1.17;;;8.00;99.90;;;;;;6160849;23;20099;-78
2022/11/05 05:31:37;;;;;;;5.18;1.83;;;8.10;99.90;;;;;;6160788;23;20017;-78
2022/11/05 05:34:04;;;;;;;3.30;1.60;;;8.10;99.90;;;;;;6160960;23;20334;-78
2022/11/05 05:36:30;;;;;;;3.63;1.60;;;8.10;99.90;;;;;;6160918;23;20016;-78
2022/11/05 05:38:55;;;;;;;6.18;1.55;;;8.10;99.90;;;;;;6160946;23;20335;-78
2022/11/05 05:41:21;;;;;;;5.00;1.90;;;8.00;99.90;;;;;;6160656;23;20442;-78
2022/11/05 05:43:46;;;;;;;6.30;1.63;;;8.00;99.90;;;;;;6160894;23;20028;-78
2022/11/05 05:46:15;;;;;;;3.13;1.30;;;8.10;99.90;;;;;;6187465;23;20019;-78
2022/11/05 05:48:41;;;;;;;4.00;1.52;;;8.00;99.90;;;;;;6160753;23;20028;-78
2022/11/05 05:51:10;;;;;;;4.57;1.40;;;8.00;99.90;;;;;;6160456;23;20393;-78
2022/11/05 05:53:36;;;;;;;6.45;1.80;;;7.90;99.90;;;;;;6160827;23;20025;-78
2022/11/05 05:56:03;;;;;;;6.00;1.88;;;7.90;99.90;;;;;;6160534;23;20452;-78
2022/11/05 05:58:38;;;;;;;6.28;1.77;;;7.90;99.90;;;;;;6160801;23;20024;-78
2022/11/05 06:01:09;;;;;;;5.60;1.45;;;7.90;99.90;;;;;;6161169;23;20021;-78
2022/11/05 06:03:35;;;;;;;5.28;1.50;;;7.80;99.90;;;;;;6160668;23;20017;-78
2022/11/05 06:06:06;;;;;;;4.57;1.90;;;7.80;99.90;;;;;;6187303;23;20023;-78
2022/11/05 06:08:32;;;;;;;5.15;2.35;;;7.70;99.90;;;;;;6160829;23;20052;-78
2022/11/05 06:10:59;;;;;;;6.32;2.00;;;7.80;99.90;;;;;;6160662;23;20026;-78
2022/11/05 06:13:25;;;;;;;3.25;1.85;;;7.80;99.90;;;;;;6160518;23;20051;-78
2022/11/05 06:15:51;;;;;;;7.13;2.05;;;7.70;99.90;;;;;;6160513;23;20012;-78
2022/11/05 06:18:17;;;;;;;4.70;2.00;;;7.70;99.90;;;;;;6160506;23;20037;-78
2022/11/05 06:20:42;;;;;;;7.90;2.47;;;7.70;99.90;;;;;;6160344;23;20021;-78
2022/11/05 06:23:08;;;;;;;5.97;1.92;;;7.70;99.90;;;;;;6160577;23;20021;-78
2022/11/05 06:25:34;;;;;;;8.15;1.98;;;7.70;99.90;;;;;;6187068;23;20005;-77
2022/11/05 06:27:59;;;;;;;3.60;1.80;;;7.70;99.90;;;;;;6160379;23;20344;-78
2022/11/05 06:30:25;;;;;;;7.90;2.70;;;7.70;99.90;;;;;;6186903;23;20441;-78
2022/11/05 06:32:51;;;;;;;7.47;2.15;;;7.70;99.90;;;;;;6156977;23;20097;-78
2022/11/05 06:35:16;;;;;;;5.30;3.03;;;7.70;99.90;;;;;;6130391;23;20022;-78
2022/11/05 06:37:45;;;;;;;5.25;2.00;;;7.70;99.90;;;;;;6129588;23;20349;-78
2022/11/05 06:40:11;;;;;;;5.47;2.17;;;7.70;99.90;;;;;;6130793;23;20017;-78
2022/11/05 06:42:36;;;;;;;5.18;2.10;;;7.70;99.90;;;;;;6130650;23;20018;-78
2022/11/05 06:45:02;;;;;;;4.60;2.17;;;7.70;99.90;;;;;;6130670;23;20025;-78
2022/11/05 06:47:28;;;;;;;4.78;2.83;;;7.70;99.90;;;;;;6130451;23;20076;-78
2022/11/05 06:49:55;;;;;;;5.68;2.22;;;7.70;99.90;;;;;;6156518;23;20430;-78
2022/11/05 06:52:20;;;;;;;7.18;2.97;;;7.70;99.90;;;;;;6130162;23;20029;-78
2022/11/05 06:54:46;;;;;;;5.82;2.05;;;7.70;99.90;;;;;;6156955;23;20014;-78
2022/11/05 06:57:12;;;;;;;5.13;2.10;;;7.70;99.90;;;;;;6130504;23;20354;-77
2022/11/05 06:59:38;;;;;;;3.38;2.10;;;7.70;99.90;;;;;;6130431;23;20430;-78
2022/11/05 07:02:05;;;;;;;5.03;2.40;;;7.80;99.90;;;;;;6130514;23;20024;-78
2022/11/05 07:04:31;;;;;;;5.15;2.08;;;7.80;99.90;;;;;;6130336;23;20018;-78
2022/11/05 07:06:59;;;;;;;4.80;1.88;;;7.80;99.90;;;;;;6130527;23;20045;-78
2022/11/05 07:09:25;;;;;;;6.57;1.92;;;7.80;99.90;;;;;;6130413;23;20096;-78
2022/11/05 07:11:51;;;;;;;5.80;2.10;;;7.80;99.90;;;;;;6130471;23;20017;-78
2022/11/05 07:14:16;;;;;;;5.43;2.50;;;7.80;99.90;;;;;;6130616;23;20017;-78
2022/11/05 07:16:45;;;;;;;5.88;2.20;;;7.80;99.90;;;;;;6130396;23;20036;-78
2022/11/05 07:19:11;;;;;;;4.70;2.72;;;7.90;99.90;;;;;;6129259;23;20021;-78
2022/11/05 07:21:36;;;;;;;7.03;2.30;;;7.90;99.90;;;;;;6130385;23;20029;-78
2022/11/05 07:24:02;;;;;;;5.65;3.00;;;7.90;99.90;;;;;;6156122;23;20402;-78
2022/11/05 07:43:05;;;;;;;7.30;3.33;;;8.40;99.90;;;;;;6186979;22;20041;-78
2022/11/05 07:45:31;;;;;;;4.43;2.80;;;8.50;99.90;;;;;;6159699;23;20025;-78
2022/11/05 07:47:59;;;;;;;8.02;3.20;;;8.50;99.90;;;;;;6159273;23;20013;-77
2022/11/05 07:50:27;;;;;;;8.48;3.03;;;8.50;99.90;;;;;;6159142;23;20068;-77
2022/11/05 07:52:53;;;;;;;5.90;2.88;;;8.50;99.90;;;;;;6158219;23;20476;-78
2022/11/05 07:55:19;;;;;;;5.60;3.13;;;8.50;99.90;;;;;;6159209;23;20021;-77
2022/11/05 07:57:47;;;;;;;4.72;2.80;;;8.40;99.90;;;;;;6185887;23;20017;-77
2022/11/05 08:00:16;;;;;;;6.55;3.30;;;8.40;99.90;;;;;;6159301;23;20017;-77
2022/11/05 08:02:42;;;;;;;4.90;2.75;;;8.40;99.90;;;;;;6158976;23;20088;-77
2022/11/05 08:05:08;;;;;;;6.53;3.28;;;8.40;99.90;;;;;;6159132;23;20013;-78
2022/11/05 08:07:34;;;;;;;6.95;2.70;;;8.40;99.90;;;;;;6185520;23;20013;-78
2022/11/05 08:10:02;;;;;;;6.53;3.30;;;8.40;99.90;;;;;;6184258;23;20044;-78
2022/11/05 08:20:32;;;;;;;5.97;3.07;;;8.30;99.90;;;;;;6214095;23;20029;-78
2022/11/05 08:23:30;;;;;;;7.43;3.17;;;8.40;99.90;;;;;;6185455;23;20033;-78
2022/11/05 08:33:33;;;;;;;4.50;2.58;;;8.60;99.90;;;;;;6184247;22;20029;-77
2022/11/05 08:51:48;;;;;;;8.63;2.90;;;9.00;99.90;;;;;;5987012;23;20027;-78
2022/11/05 08:54:13;;;;;;;5.35;2.83;;;9.10;99.90;;;;;;6041585;23;20030;-77
2022/11/05 08:56:39;;;;;;;4.30;2.50;;;9.20;99.90;;;;;;6065634;23;20034;-78
2022/11/05 08:59:05;;;;;;;6.22;2.65;;;9.20;99.90;;;;;;6134525;23;20014;-77
2022/11/05 09:01:32;;;;;;;5.45;2.80;;;9.20;99.90;;;;;;6215165;23;20031;-77
2022/11/05 09:03:58;;;;;;;4.32;2.40;;;9.20;99.90;;;;;;6215526;23;20020;-77
2022/11/05 09:06:24;;;;;;;5.55;2.58;;;9.30;99.90;;;;;;6215304;23;20008;-77
2022/11/05 09:08:49;;;;;;;7.28;2.92;;;9.30;99.90;;;;;;6215363;23;20056;-77
2022/11/05 09:11:16;;;;;;;5.97;3.58;;;9.30;99.90;;;;;;6215767;23;20095;-77
2022/11/05 09:13:42;;;;;;;6.22;2.45;;;9.40;99.90;;;;;;6188678;23;20072;-77
2022/11/05 09:16:20;;;;;;;6.47;3.28;;;9.40;99.90;;;;;;6216541;23;20306;-77
2022/11/05 09:18:45;;;;;;;7.18;3.30;;;9.40;99.90;;;;;;6217149;23;20392;-77
2022/11/05 09:21:11;;;;;;;8.32;2.80;;;9.50;99.90;;;;;;6190508;23;20043;-77
2022/11/05 09:23:37;;;;;;;4.38;2.58;;;9.50;99.90;;;;;;6217384;23;20448;-77
2022/11/05 09:26:03;;;;;;;7.15;2.80;;;9.60;99.90;;;;;;6190498;23;20016;-77
2022/11/05 09:28:30;;;;;;;11.35;3.03;;;9.80;99.90;;;;;;6190124;23;20400;-77
2022/11/05 09:30:56;;;;;;;5.70;2.55;;;10.00;99.90;;;;;;6190231;23;20008;-77
2022/11/05 09:33:23;;;;;;;7.65;2.35;;;10.10;99.90;;;;;;6217159;23;20029;-77
2022/11/05 09:35:50;;;;;;;5.70;2.10;;;10.30;99.90;;;;;;6190043;23;20025;-77
2022/11/05 09:38:16;;;;;;;4.72;2.08;;;10.50;99.90;;;;;;6217299;23;20020;-77
2022/11/05 09:40:49;;;;;;;3.90;1.98;;;10.60;99.90;;;;;;6190305;23;20032;-77
2022/11/05 09:43:17;;;;;;;;;;;10.60;99.90;;;;;;6217628;23;20026;-78
2022/11/05 09:45:45;;;;;;;4.75;1.63;;;10.60;99.90;;;;;;6190438;23;19916;-77
2022/11/05 09:48:14;;;;;;;5.50;1.77;;;10.70;99.90;;;;;;6190208;23;20055;-77
2022/11/05 09:50:44;;;;;;;4.80;1.70;;;10.70;99.90;;;;;;6190055;23;20028;-77
2022/11/05 09:53:16;;;;;;;4.45;1.70;;;10.80;99.90;;;;;;6216725;23;20058;-77
2022/11/05 09:55:53;;;;;;;4.10;1.63;;;10.80;99.90;;;;;;6190385;23;20020;-78
2022/11/05 09:58:42;;;;;;;6.80;2.05;;;10.80;99.90;;;;;;6190339;23;20030;-77
2022/11/05 10:01:14;;;;;;;5.18;2.55;;;10.90;99.90;;;;;;6216791;23;20330;-77
2022/11/05 10:03:45;;;;;;;3.28;1.90;;;10.90;99.90;;;;;;6216660;23;20023;-77
2022/11/05 10:06:18;;;;;;;6.10;2.42;;;11.00;99.90;;;;;;6216777;23;20082;-77
2022/11/05 10:08:46;;;;;;;5.38;1.95;;;11.00;99.90;;;;;;6216587;23;20048;-77
2022/11/05 10:11:21;;;;;;;4.78;2.13;;;11.10;99.90;;;;;;6190049;23;20020;-77
2022/11/05 10:13:58;;;;;;;4.82;1.92;;;11.10;99.90;;;;;;6189809;23;20016;-77
2022/11/05 10:16:34;;;;;;;3.75;1.65;;;11.10;99.90;;;;;;6216991;23;20126;-77
2022/11/05 10:19:08;;;;;;;4.95;1.85;;;11.10;99.90;;;;;;6216559;23;20020;-76
2022/11/05 10:21:35;;;;;;;3.40;1.35;;;11.10;99.90;;;;;;6216939;23;20013;-77
2022/11/05 10:24:01;;;;;;;3.47;1.08;;;11.30;99.90;;;;;;6216125;23;20063;-77
2022/11/05 10:26:27;;;;;;;4.72;1.15;;;11.40;99.90;;;;;;6189710;23;20019;-77
2022/11/05 10:28:53;;;;;;;5.13;1.60;;;11.50;99.90;;;;;;6189791;23;20027;-77
2022/11/05 10:31:21;;;;;;;3.60;1.70;;;11.70;99.90;;;;;;6189968;23;20013;-77
2022/11/05 10:33:55;;;;;;;4.53;1.88;;;11.90;99.90;;;;;;6189585;23;20021;-76
2022/11/05 10:36:27;;;;;;;7.90;2.22;;;12.00;99.90;;;;;;6189983;23;20013;-76
2022/11/05 10:38:57;;;;;;;7.43;2.10;;;12.10;99.90;;;;;;6189546;23;20027;-76
2022/11/05 10:41:51;;;;;;;8.63;2.63;;;12.20;99.90;;;;;;6216016;23;20028;-77
2022/11/05 10:44:48;;;;;;;7.50;2.80;;;12.40;99.90;;;;;;6171606;23;20020;-77
2022/11/05 10:47:34;;;;;;;7.68;2.60;;;12.50;99.90;;;;;;6189189;23;20025;-77
2022/11/05 10:50:11;;;;;;;6.00;2.50;;;12.40;99.90;;;;;;6189938;23;20020;-77
2022/11/05 10:53:06;;;;;;;5.60;2.65;;;12.40;99.90;;;;;;6189453;23;20437;-77
2022/11/05 10:55:36;;;;;;;6.78;2.65;;;12.50;99.90;;;;;;6189846;23;20025;-77
2022/11/05 10:58:14;;;;;;;7.40;2.67;;;12.60;99.90;;;;;;6189432;23;20023;-77
2022/11/05 11:00:41;;;;;;;7.10;2.30;;;12.60;99.90;;;;;;6189588;23;20012;-78
2022/11/05 11:03:39;;;;;;;8.60;2.70;;;12.80;99.90;;;;;;6189720;23;20018;-77
2022/11/05 11:06:11;;;;;;;6.70;2.42;;;12.90;99.90;;;;;;6216521;23;20016;-77
2022/11/05 11:08:37;;;;;;;5.97;2.40;;;13.00;99.90;;;;;;6216035;23;20028;-77
2022/11/05 11:11:09;;;;;;;8.23;2.53;;;13.00;99.90;;;;;;6189218;23;20083;-81
2022/11/05 11:13:50;;;;;;;9.35;2.47;;;13.10;99.90;;;;;;6189308;23;20086;-78
2022/11/05 11:16:21;;;;;;;7.43;2.17;;;13.10;99.90;;;;;;6215331;23;20499;-79
2022/11/05 11:19:02;;;;;;;8.80;2.65;;;13.30;99.90;;;;;;6189102;23;20123;-79
2022/11/05 11:21:29;;;;;;;6.78;2.30;;;13.40;99.90;;;;;;6216490;23;20020;-78
2022/11/05 11:24:03;;;;;;;6.70;2.30;;;13.40;99.90;;;;;;6189047;23;20020;-78
2022/11/05 11:26:32;;;;;;;6.05;2.30;;;13.30;99.90;;;;;;6189466;23;20105;-79
2022/11/05 11:29:17;;;;;;;5.60;2.17;;;13.40;99.90;;;;;;6189354;23;20349;-78
2022/11/05 11:31:43;;;;;;;5.63;2.40;;;13.50;99.90;;;;;;6215936;23;20009;-79
2022/11/05 11:34:25;;;;;;;6.68;2.20;;;13.50;99.90;;;;;;6215518;23;20129;-79
2022/11/05 11:36:57;;;;;;;8.30;3.00;;;13.50;99.90;;;;;;6216279;23;20024;-78
2022/11/05 11:39:27;;;;;;;5.75;2.22;;;13.50;99.90;;;;;;6189210;23;20017;-78
2022/11/05 11:41:57;;;;;;;7.25;1.90;;;13.30;99.90;;;;;;6215905;23;20048;-78
2022/11/05 11:44:29;;;;;;;6.20;2.28;;;13.10;99.90;;;;;;6189307;23;20075;-77
2022/11/05 11:47:00;;;;;;;8.23;2.40;;;13.10;99.90;;;;;;6188998;23;20013;-79
2022/11/05 11:49:45;;;;;;;8.23;2.40;;;13.00;99.90;;;;;;6189133;23;20026;-79
2022/11/05 11:52:15;;;;;;;7.22;2.28;;;12.90;99.90;;;;;;6189084;23;20020;-80
2022/11/05 11:54:41;;;;;;;6.43;2.17;;;12.90;99.90;;;;;;6189322;23;20021;-77
2022/11/05 11:57:41;;;;;;;6.47;2.40;;;12.80;99.90;;;;;;6189143;23;20013;-78
2022/11/05 12:00:08;;;;;;;6.72;2.15;;;12.80;99.90;;;;;;6214992;23;20016;-78
2022/11/05 12:02:36;;;;;;;6.38;2.88;;;12.90;99.90;;;;;;6188734;23;20023;-78
2022/11/05 12:05:32;;;;;;;9.23;2.38;;;12.90;99.90;;;;;;6189099;23;20024;-78
2022/11/05 12:08:07;;;;;;;9.27;1.98;;;12.90;99.90;;;;;;6215207;23;20437;-77
2022/11/05 12:10:41;;;;;;;11.07;2.40;;;12.90;99.90;;;;;;6216107;23;20021;-78
2022/11/05 12:13:19;;;;;;;6.13;2.25;;;12.80;99.90;;;;;;6189077;23;20087;-78
2022/11/05 12:16:13;;;;;;;4.68;1.80;;;12.70;99.90;;;;;;6188811;23;20059;-78
2022/11/05 12:18:53;;;;;;;7.25;1.92;;;12.70;99.90;;;;;;6186846;23;20016;-78
2022/11/05 12:21:38;;;;;;;7.35;1.90;;;12.70;99.90;;;;;;6188615;23;20027;-77
2022/11/05 12:24:36;;;;;;;6.10;1.85;;;12.60;99.90;;;;;;6188863;23;20043;-77
2022/11/05 12:27:10;;;;;;;3.53;1.50;;;12.50;99.90;;;;;;6188908;23;20025;-79
2022/11/05 12:30:00;;;;;;;7.43;1.85;;;12.40;99.90;;;;;;6188489;23;20475;-78
2022/11/05 12:32:54;;;;;;;3.67;1.35;;;12.30;99.90;;;;;;6188757;23;20433;-78
2022/11/05 12:35:26;;;;;;;5.97;1.40;;;12.30;99.90;;;;;;6188922;23;20503;-83
2022/11/05 12:38:18;;;;;;;5.78;1.40;;;12.20;99.90;;;;;;6188630;23;20074;-82
2022/11/05 12:41:15;;;;;;;5.07;1.20;;;12.20;99.90;;;;;;6188634;23;20449;-84
2022/11/05 12:44:06;;;;;;;5.43;1.30;;;12.20;99.90;;;;;;6188282;23;20049;-81
2022/11/05 12:46:42;;;;;;;3.55;1.20;;;12.10;99.90;;;;;;6188606;23;20024;-77
2022/11/05 12:49:29;;;;;;;2.63;0.93;;;12.10;99.90;;;;;;6214313;23;20013;-78
2022/11/05 12:52:06;;;;;;;3.22;1.13;;;12.10;99.90;;;;;;6217076;23;20013;-81
2022/11/05 12:54:57;;;;;;;3.33;0.75;;;12.10;99.90;;;;;;6190659;23;20020;-78
2022/11/05 12:57:23;;;;;;;3.13;0.88;;;12.10;99.90;;;;;;6217204;23;20017;-78
2022/11/05 13:00:16;;;;;;;2.70;0.80;;;12.00;99.90;;;;;;6190493;23;20417;-78
2022/11/05 13:02:48;;;;;;;4.65;0.75;;;11.90;99.90;;;;;;6217325;23;20447;-78
2022/11/05 13:05:23;;;;;;;4.65;1.20;;;11.90;99.90;;;;;;6217327;23;20115;-78
2022/11/05 13:08:01;;;;;;;4.75;1.02;;;11.90;99.90;;;;;;6190575;23;20016;-78
2022/11/05 13:10:33;;;;;;;5.40;1.00;;;11.70;99.90;;;;;;6190842;23;20112;-79
2022/11/05 13:13:21;;;;;;;4.72;1.00;;;11.70;99.90;;;;;;6190594;23;20044;-79
2022/11/05 13:16:24;;;;;;;3.45;0.90;;;11.70;99.90;;;;;;6217209;23;20401;-79
2022/11/05 13:19:19;;;;;;;4.95;1.30;;;11.60;99.90;;;;;;6201065;23;20058;-79
2022/11/05 13:21:51;;;;;;;4.40;1.05;;;11.60;99.90;;;;;;6190535;23;20024;-79
2022/11/05 13:24:25;;;;;;;4.60;1.40;;;11.50;99.90;;;;;;6216951;23;20388;-79
2022/11/05 13:26:53;;;;;;;4.55;1.13;;;11.50;99.90;;;;;;6190617;23;20066;-78
2022/11/05 13:29:31;;;;;;;7.00;2.33;;;11.40;99.90;;;;;;6190418;23;20029;-78
2022/11/05 13:32:26;;;;;;;6.15;2.33;;;11.40;99.90;;;;;;6190477;23;20021;-78
2022/11/05 13:34:57;;;;;;;6.80;2.72;;;11.40;99.90;;;;;;6190696;23;20070;-79
2022/11/05 13:40:19;;;;;;;6.18;2.45;;;11.50;99.90;;;;;;6190304;23;20016;-80
2022/11/05 13:43:13;;;;;;;4.90;2.58;;;11.50;99.90;;;;;;6216960;23;20027;-78
2022/11/05 13:46:04;;;;;;;10.32;2.67;;;11.50;99.90;;;;;;6190251;23;20476;-79
2022/11/05 13:49:12;;;;;;;6.78;2.67;;;11.50;99.90;;;;;;6190064;23;20024;-79
2022/11/05 13:51:59;;;;;;;4.43;1.98;;;11.40;99.90;;;;;;6190205;23;20017;-79
2022/11/05 13:54:48;;;;;;;5.10;2.05;;;11.40;99.90;;;;;;6217237;23;20023;-79
2022/11/05 13:57:29;;;;;;;5.75;1.95;;;11.40;99.90;;;;;;6190229;23;20020;-79
2022/11/05 14:00:10;;;;;;;9.07;2.10;;;11.40;99.90;;;;;;6190131;23;20496;-79
2022/11/05 14:02:58;;;;;;;5.05;2.10;;;11.30;99.90;;;;;;6189861;23;20100;-79
2022/11/05 14:05:29;;;;;;;7.82;2.30;;;11.30;99.90;;;;;;6189837;23;20474;-79
2022/11/05 14:07:57;;;;;;;8.95;3.13;;;11.20;99.90;;;;;;6190179;23;20020;-79
2022/11/05 14:10:35;;;;;;;6.80;2.47;;;11.20;99.90;;;;;;6190077;23;20402;-79
2022/11/05 14:13:14;;;;;;;9.63;2.97;;;11.30;99.90;;;;;;6190167;23;20020;-79
2022/11/05 14:16:00;;;;;;;6.35;2.85;;;11.20;99.90;;;;;;6189706;23;20016;-79
2022/11/05 14:18:44;;;;;;;4.68;2.60;;;11.30;99.90;;;;;;6190227;23;20095;-79
2022/11/05 14:21:52;;;;;;;6.03;2.75;;;11.20;99.90;;;;;;6190031;23;20451;-80
2022/11/05 14:24:21;;;;;;;7.78;3.45;;;11.20;99.90;;;;;;6158358;23;20325;-79
2022/11/05 14:26:59;;;;;;;10.75;3.28;;;11.20;99.90;;;;;;6189736;23;20027;-79
2022/11/05 14:29:35;;;;;;;6.80;2.88;;;11.20;99.90;;;;;;6189915;23;20071;-79
2022/11/05 14:32:24;;;;;;;6.90;2.95;;;11.20;99.90;;;;;;6189945;23;20027;-79
2022/11/05 14:35:28;;;;;;;9.70;2.97;;;11.20;99.90;;;;;;6189929;23;20031;-78
2022/11/05 14:37:58;;;;;;;14.02;4.10;;;11.20;99.90;;;;;;6183872;23;20016;-83
2022/11/05 14:40:26;;;;;;;8.75;3.38;;;11.20;99.90;;;;;;6189828;23;20111;-78
2022/11/05 14:42:55;;;;;;;7.93;2.97;;;11.20;99.90;;;;;;6189307;23;20016;-78
2022/11/05 14:45:42;;;;;;;8.95;4.03;;;11.20;99.90;;;;;;6189799;23;20020;-78
2022/11/05 14:48:46;;;;;;;6.97;3.20;;;11.20;99.90;;;;;;6190101;23;20098;-78
2022/11/05 14:51:32;;;;;;;8.57;4.10;;;11.10;99.90;;;;;;6183815;23;20050;-78